General Aviation Weather

Text Reports

Enter one or more of the following location identifiers separated by a space:

Zip Code, Four-Character ICAO or Three-Character IATA airport codes.

METAR - Aviation Routine Weather Report
DIAP - Abidjan,
Updated at 12:22 PM GMT on January 27, 2015 (12:22 PM GMT):
SPECI DIAP 271222Z VRB02KT 8000 SCT011 SCT020 30/26 Q1011 NOSIG
TAF - Terminal Area Forecast
DIAP - Abidjan,
Updated at 12:22 PM GMT on January 27, 2015 (12:22 PM GMT):
TAF DIAP 271100Z 2712/2818 24010KT 8000 BKN010 TEMPO 2712/2716 4000
RA
     PROB30 TEMPO 2716/2720 BKN012 FEW020CB=
TAF COR GVAC 271100Z 2712/2818 05015KT 4000 HZ NSC PROB30 TEMPO
2712/2720 2500 DU=
Decoded:
ID: DIAP   Abidjan/Port Bo, IVAMENDMENT

REPORT TIME: 27  5:50
VALID TIME: 27 January AT 06:00Z to 28 January AT 12:00Z.
INITIAL WX
   WIND: VARIABLE AT 2
   VISIBILITY: 5.0 MILES
   CLOUDS: 12 FEW
30% PROBABILITY OF WX 
TEMPORARY WX FROM 06Z TO 08Z
   VISIBILITY: 2.5 MILES
   WEATHER: BR_PROB
   COMMENTS: 30 
TEMPORARY WX FROM 09Z TO 11Z
   CLOUDS: 12 BKN
WX BECOMING FROM 10Z TO 12Z
   WINDS: 200 AT 10
   WEATHER: PROB
   COMMENTS: 40 2713/2719 SCT012 FEW020CB 
30% PROBABILITY OF WX 
TEMPORARY WX FROM 14Z TO 18Z
   VISIBILITY: 1.9 MILES
   WEATHER: TSRA
   COMMENTS: = 

PIREP - Pilot Weather Report
DIAP - Abidjan,
Updated at 12:22 PM GMT on January 27, 2015 (12:22 PM GMT):
No PIREP is currently available for this location.
AIRMET - Airmens Meteorological Information
DIAP - Abidjan,
Updated at 12:22 PM GMT on January 27, 2015 (12:22 PM GMT):
No AIRMET is currently available for this location.
SIGMET - Significant Meteorological Information
DIAP - Abidjan,
Updated at 12:22 PM GMT on January 27, 2015 (12:22 PM GMT):
No SIGMET is currently available for this location.
NOTAM - Notice to Airmen
DIAP - Abidjan,
Updated at 12:22 PM GMT on January 27, 2015 (12:22 PM GMT):
No NOTAM is currently available for this location.
Forecast Area
DIAP - Abidjan,
Updated at 12:22 PM GMT on January 27, 2015 (12:22 PM GMT):
No NOTAM is currently available for this location.
Aviation Weather Maps